This is the latest recevied weather packets stored in our database for station/object N4HAC. If no packets are shown the sender has not sent any weather packets the latest 10 day(s).
| Time | Temp. | Humidity | Pressure | Rain* | Wind** | Luminosity | Snow |
|---|---|---|---|---|---|---|---|
| 1777863137 | 5° C | 80% | 1010.2 hPa | 0 mm | - | 0 W/m² | - |
| 1777862834 | 5.56° C | 79% | 1010.3 hPa | 0 mm | - | 0 W/m² | - |
| 1777862531 | 6.11° C | 75% | 1010.2 hPa | 0 mm | - | 0 W/m² | - |
| 1777862228 | 6.67° C | 72% | 1010.4 hPa | 0 mm | - | 0 W/m² | - |
| 1777861923 | 6.11° C | 76% | 1010.5 hPa | 0 mm | - | 0 W/m² | - |
| 1777861620 | 5.56° C | 81% | 1010.4 hPa | 0 mm | - | 0 W/m² | - |
| 1777861316 | 5.56° C | 78% | 1010.5 hPa | 0 mm | - | 0 W/m² | - |
| 1777861014 | 6.67° C | 74% | 1010.1 hPa | 0 mm | - | 0 W/m² | - |
| 1777860710 | 6.67° C | 72% | 1010 hPa | 0 mm | - | 0 W/m² | - |
| 1777860408 | 6.67° C | 71% | 1010 hPa | 0 mm | - | 0 W/m² | - |
| 1777860103 | 6.67° C | 71% | 1009.9 hPa | 0 mm | - | 0 W/m² | - |
| 1777859801 | 6.67° C | 72% | 1009.8 hPa | 0 mm | - | 0 W/m² | - |
| 1777859497 | 6.67° C | 73% | 1009.8 hPa | 0 mm | - | 0 W/m² | - |
| 1777859192 | 6.67° C | 69% | 1009.6 hPa | 0 mm | - | 0 W/m² | - |
| 1777858890 | 7.22° C | 68% | 1009.8 hPa | 0 mm | - | 0 W/m² | - |
| 1777858587 | 7.22° C | 69% | 1009.6 hPa | 0 mm | - | 0 W/m² | - |
| 1777858284 | 7.78° C | 66% | 1009.7 hPa | 0 mm | - | 0 W/m² | - |
| 1777857981 | 8.33° C | 64% | 1009.6 hPa | 0 mm | - | 0 W/m² | - |
| 1777857679 | 8.33° C | 60% | 1009.5 hPa | 0 mm | - | 0 W/m² | - |
| 1777857376 | 8.89° C | 58% | 1009.5 hPa | 0 mm | - | 0 W/m² | - |
| 1777857072 | 9.44° C | 55% | 1009.5 hPa | 0 mm | - | 0 W/m² | - |
| 1777856768 | 9.44° C | 57% | 1009.2 hPa | 0 mm | - | 0 W/m² | - |
| 1777856464 | 9.44° C | 54% | 1009.4 hPa | 0 mm | - | 0 W/m² | - |
| 1777856161 | 9.44° C | 52% | 1009.1 hPa | 0 mm | - | 0 W/m² | - |
| 1777855858 | 10° C | 53% | 1009.1 hPa | 0 mm | - | 0 W/m² | - |
* Rain latest hour (hover to see other rain measurements)
** Current wind speed in m/s (hover to see current wind gust speed)